sensor_id;sensor_type;location;lat;lon;timestamp;P1;durP1;ratioP1;P2;durP2;ratioP2
10467;SDS011;5281;48.878;9.394;2023-12-04T00:01:30;12.17;;;9.07;;
10467;SDS011;5281;48.878;9.394;2023-12-04T00:03:57;13.43;;;9.47;;
10467;SDS011;5281;48.878;9.394;2023-12-04T00:06:25;14.73;;;9.90;;
10467;SDS011;5281;48.878;9.394;2023-12-04T00:08:52;13.27;;;9.20;;
10467;SDS011;5281;48.878;9.394;2023-12-04T00:11:19;13.37;;;8.93;;
10467;SDS011;5281;48.878;9.394;2023-12-04T00:13:45;15.00;;;9.20;;
10467;SDS011;5281;48.878;9.394;2023-12-04T00:16:12;14.07;;;9.50;;
10467;SDS011;5281;48.878;9.394;2023-12-04T00:18:39;15.13;;;9.80;;
10467;SDS011;5281;48.878;9.394;2023-12-04T00:21:05;12.40;;;8.90;;
10467;SDS011;5281;48.878;9.394;2023-12-04T00:23:34;15.70;;;9.90;;
10467;SDS011;5281;48.878;9.394;2023-12-04T00:26:01;14.90;;;9.37;;
10467;SDS011;5281;48.878;9.394;2023-12-04T00:28:27;12.73;;;9.20;;
10467;SDS011;5281;48.878;9.394;2023-12-04T00:30:54;13.63;;;9.33;;
10467;SDS011;5281;48.878;9.394;2023-12-04T00:33:21;13.07;;;8.80;;
10467;SDS011;5281;48.878;9.394;2023-12-04T00:35:48;14.07;;;9.03;;
10467;SDS011;5281;48.878;9.394;2023-12-04T00:38:14;12.93;;;8.57;;
10467;SDS011;5281;48.878;9.394;2023-12-04T00:40:42;12.97;;;8.40;;
10467;SDS011;5281;48.878;9.394;2023-12-04T00:43:09;13.33;;;8.37;;
10467;SDS011;5281;48.878;9.394;2023-12-04T00:45:36;12.13;;;8.63;;
10467;SDS011;5281;48.878;9.394;2023-12-04T00:48:03;15.00;;;9.67;;
10467;SDS011;5281;48.878;9.394;2023-12-04T00:50:30;16.07;;;9.70;;
10467;SDS011;5281;48.878;9.394;2023-12-04T00:52:57;14.50;;;9.30;;
10467;SDS011;5281;48.878;9.394;2023-12-04T00:55:23;13.93;;;9.80;;
10467;SDS011;5281;48.878;9.394;2023-12-04T00:57:51;12.07;;;8.60;;
10467;SDS011;5281;48.878;9.394;2023-12-04T01:00:18;15.27;;;9.83;;
10467;SDS011;5281;48.878;9.394;2023-12-04T01:02:45;14.60;;;9.93;;
10467;SDS011;5281;48.878;9.394;2023-12-04T01:05:11;13.83;;;9.17;;
10467;SDS011;5281;48.878;9.394;2023-12-04T01:07:38;12.63;;;8.57;;
10467;SDS011;5281;48.878;9.394;2023-12-04T01:10:05;14.20;;;8.63;;
10467;SDS011;5281;48.878;9.394;2023-12-04T01:12:32;14.33;;;9.23;;
10467;SDS011;5281;48.878;9.394;2023-12-04T01:15:00;14.47;;;9.13;;
10467;SDS011;5281;48.878;9.394;2023-12-04T01:17:28;14.57;;;9.77;;
10467;SDS011;5281;48.878;9.394;2023-12-04T01:19:54;14.13;;;8.93;;
10467;SDS011;5281;48.878;9.394;2023-12-04T01:22:22;12.73;;;8.53;;
10467;SDS011;5281;48.878;9.394;2023-12-04T01:24:49;15.83;;;9.07;;
10467;SDS011;5281;48.878;9.394;2023-12-04T01:27:16;13.47;;;8.80;;
10467;SDS011;5281;48.878;9.394;2023-12-04T01:29:42;17.37;;;10.00;;
10467;SDS011;5281;48.878;9.394;2023-12-04T01:32:10;14.47;;;9.40;;
10467;SDS011;5281;48.878;9.394;2023-12-04T01:34:37;13.27;;;8.80;;
10467;SDS011;5281;48.878;9.394;2023-12-04T01:37:04;12.97;;;7.83;;
10467;SDS011;5281;48.878;9.394;2023-12-04T01:39:30;15.30;;;9.33;;
10467;SDS011;5281;48.878;9.394;2023-12-04T01:41:57;25.20;;;13.67;;
10467;SDS011;5281;48.878;9.394;2023-12-04T01:44:24;13.13;;;8.47;;
10467;SDS011;5281;48.878;9.394;2023-12-04T01:46:50;16.50;;;9.97;;
10467;SDS011;5281;48.878;9.394;2023-12-04T01:49:19;12.37;;;7.93;;
10467;SDS011;5281;48.878;9.394;2023-12-04T01:51:45;17.60;;;10.33;;
10467;SDS011;5281;48.878;9.394;2023-12-04T01:54:12;14.40;;;8.97;;
10467;SDS011;5281;48.878;9.394;2023-12-04T01:56:40;21.07;;;11.43;;
10467;SDS011;5281;48.878;9.394;2023-12-04T01:59:07;12.07;;;7.97;;
10467;SDS011;5281;48.878;9.394;2023-12-04T02:01:33;10.20;;;7.50;;
10467;SDS011;5281;48.878;9.394;2023-12-04T02:04:02;11.93;;;7.87;;
10467;SDS011;5281;48.878;9.394;2023-12-04T02:06:30;10.30;;;7.33;;
10467;SDS011;5281;48.878;9.394;2023-12-04T02:08:57;14.87;;;8.93;;
10467;SDS011;5281;48.878;9.394;2023-12-04T02:11:23;10.73;;;7.00;;
10467;SDS011;5281;48.878;9.394;2023-12-04T02:13:50;9.40;;;6.97;;
10467;SDS011;5281;48.878;9.394;2023-12-04T02:16:17;9.10;;;6.60;;
10467;SDS011;5281;48.878;9.394;2023-12-04T02:18:45;9.20;;;6.73;;
10467;SDS011;5281;48.878;9.394;2023-12-04T02:21:12;9.87;;;6.87;;
10467;SDS011;5281;48.878;9.394;2023-12-04T02:23:41;17.87;;;9.90;;
10467;SDS011;5281;48.878;9.394;2023-12-04T02:26:10;9.80;;;6.87;;
10467;SDS011;5281;48.878;9.394;2023-12-04T02:28:40;8.57;;;5.83;;
10467;SDS011;5281;48.878;9.394;2023-12-04T02:31:08;14.43;;;8.57;;
10467;SDS011;5281;48.878;9.394;2023-12-04T02:33:36;13.60;;;7.40;;
10467;SDS011;5281;48.878;9.394;2023-12-04T02:36:05;8.77;;;6.07;;
10467;SDS011;5281;48.878;9.394;2023-12-04T02:38:33;9.30;;;6.37;;
10467;SDS011;5281;48.878;9.394;2023-12-04T02:41:00;8.27;;;5.83;;
10467;SDS011;5281;48.878;9.394;2023-12-04T02:43:28;8.03;;;5.57;;
10467;SDS011;5281;48.878;9.394;2023-12-04T02:45:55;8.03;;;5.90;;
10467;SDS011;5281;48.878;9.394;2023-12-04T02:48:21;7.50;;;5.30;;
10467;SDS011;5281;48.878;9.394;2023-12-04T02:50:48;7.83;;;5.40;;
10467;SDS011;5281;48.878;9.394;2023-12-04T02:53:15;7.40;;;5.00;;
10467;SDS011;5281;48.878;9.394;2023-12-04T02:55:41;7.30;;;4.57;;
10467;SDS011;5281;48.878;9.394;2023-12-04T02:58:08;8.73;;;5.87;;
10467;SDS011;5281;48.878;9.394;2023-12-04T03:00:36;8.13;;;5.43;;
10467;SDS011;5281;48.878;9.394;2023-12-04T03:03:02;7.67;;;5.27;;
10467;SDS011;5281;48.878;9.394;2023-12-04T03:05:29;10.43;;;6.10;;
10467;SDS011;5281;48.878;9.394;2023-12-04T03:07:56;9.97;;;5.93;;
10467;SDS011;5281;48.878;9.394;2023-12-04T03:10:23;7.93;;;5.50;;
10467;SDS011;5281;48.878;9.394;2023-12-04T03:12:50;7.40;;;5.63;;
10467;SDS011;5281;48.878;9.394;2023-12-04T03:15:16;7.83;;;5.60;;
10467;SDS011;5281;48.878;9.394;2023-12-04T03:17:44;8.13;;;5.70;;
10467;SDS011;5281;48.878;9.394;2023-12-04T03:20:12;8.30;;;5.47;;
10467;SDS011;5281;48.878;9.394;2023-12-04T03:22:38;7.80;;;5.63;;
10467;SDS011;5281;48.878;9.394;2023-12-04T03:25:05;6.40;;;5.40;;
10467;SDS011;5281;48.878;9.394;2023-12-04T03:27:32;7.43;;;5.27;;
10467;SDS011;5281;48.878;9.394;2023-12-04T03:29:59;8.07;;;5.50;;
10467;SDS011;5281;48.878;9.394;2023-12-04T03:32:26;8.80;;;5.37;;
10467;SDS011;5281;48.878;9.394;2023-12-04T03:34:54;8.57;;;5.33;;
10467;SDS011;5281;48.878;9.394;2023-12-04T03:37:20;15.40;;;8.23;;
10467;SDS011;5281;48.878;9.394;2023-12-04T03:39:47;7.57;;;5.30;;
10467;SDS011;5281;48.878;9.394;2023-12-04T03:42:14;6.17;;;4.47;;
10467;SDS011;5281;48.878;9.394;2023-12-04T03:44:40;5.00;;;4.17;;
10467;SDS011;5281;48.878;9.394;2023-12-04T03:47:07;5.30;;;4.10;;
10467;SDS011;5281;48.878;9.394;2023-12-04T03:49:34;6.03;;;4.37;;
10467;SDS011;5281;48.878;9.394;2023-12-04T03:52:02;5.53;;;3.90;;
10467;SDS011;5281;48.878;9.394;2023-12-04T03:54:29;5.43;;;3.97;;
10467;SDS011;5281;48.878;9.394;2023-12-04T03:56:55;4.77;;;3.60;;
10467;SDS011;5281;48.878;9.394;2023-12-04T03:59:22;4.87;;;3.77;;
10467;SDS011;5281;48.878;9.394;2023-12-04T04:01:49;5.20;;;4.00;;
10467;SDS011;5281;48.878;9.394;2023-12-04T04:04:15;8.50;;;5.17;;
10467;SDS011;5281;48.878;9.394;2023-12-04T04:06:42;5.53;;;4.20;;
10467;SDS011;5281;48.878;9.394;2023-12-04T04:09:10;5.13;;;3.93;;
10467;SDS011;5281;48.878;9.394;2023-12-04T04:11:37;6.57;;;4.27;;
10467;SDS011;5281;48.878;9.394;2023-12-04T04:14:04;8.93;;;5.97;;
10467;SDS011;5281;48.878;9.394;2023-12-04T04:16:31;7.93;;;5.90;;
10467;SDS011;5281;48.878;9.394;2023-12-04T04:18:57;7.60;;;5.27;;
10467;SDS011;5281;48.878;9.394;2023-12-04T04:21:24;7.40;;;4.90;;
10467;SDS011;5281;48.878;9.394;2023-12-04T04:23:50;7.00;;;5.20;;
10467;SDS011;5281;48.878;9.394;2023-12-04T04:26:19;7.57;;;5.40;;
10467;SDS011;5281;48.878;9.394;2023-12-04T04:28:46;7.17;;;4.97;;
10467;SDS011;5281;48.878;9.394;2023-12-04T04:31:13;6.70;;;4.87;;
10467;SDS011;5281;48.878;9.394;2023-12-04T04:33:39;7.07;;;5.40;;
10467;SDS011;5281;48.878;9.394;2023-12-04T04:36:08;8.30;;;5.20;;
10467;SDS011;5281;48.878;9.394;2023-12-04T04:38:36;9.03;;;5.60;;
10467;SDS011;5281;48.878;9.394;2023-12-04T04:41:03;6.73;;;4.77;;
10467;SDS011;5281;48.878;9.394;2023-12-04T04:43:31;5.87;;;4.37;;
10467;SDS011;5281;48.878;9.394;2023-12-04T04:45:58;6.53;;;4.30;;
10467;SDS011;5281;48.878;9.394;2023-12-04T04:48:25;7.63;;;4.23;;
10467;SDS011;5281;48.878;9.394;2023-12-04T04:50:51;6.27;;;4.30;;
10467;SDS011;5281;48.878;9.394;2023-12-04T04:53:18;5.93;;;4.30;;
10467;SDS011;5281;48.878;9.394;2023-12-04T04:55:46;5.47;;;4.03;;
10467;SDS011;5281;48.878;9.394;2023-12-04T04:58:12;4.37;;;3.57;;
10467;SDS011;5281;48.878;9.394;2023-12-04T05:00:40;4.77;;;3.80;;
10467;SDS011;5281;48.878;9.394;2023-12-04T05:03:07;4.70;;;3.77;;
10467;SDS011;5281;48.878;9.394;2023-12-04T05:05:34;4.83;;;3.80;;
10467;SDS011;5281;48.878;9.394;2023-12-04T05:08:00;6.23;;;3.90;;
10467;SDS011;5281;48.878;9.394;2023-12-04T05:10:27;5.37;;;4.00;;
10467;SDS011;5281;48.878;9.394;2023-12-04T05:12:54;5.50;;;3.93;;
10467;SDS011;5281;48.878;9.394;2023-12-04T05:15:20;5.60;;;4.00;;
10467;SDS011;5281;48.878;9.394;2023-12-04T05:17:48;6.80;;;4.50;;
10467;SDS011;5281;48.878;9.394;2023-12-04T05:20:16;5.77;;;3.90;;
10467;SDS011;5281;48.878;9.394;2023-12-04T05:22:41;6.93;;;3.93;;
10467;SDS011;5281;48.878;9.394;2023-12-04T05:25:08;6.53;;;4.40;;
10467;SDS011;5281;48.878;9.394;2023-12-04T05:27:35;6.27;;;4.27;;
10467;SDS011;5281;48.878;9.394;2023-12-04T05:30:02;7.97;;;4.47;;
10467;SDS011;5281;48.878;9.394;2023-12-04T05:32:29;6.27;;;4.20;;
10467;SDS011;5281;48.878;9.394;2023-12-04T05:34:57;5.70;;;4.10;;
10467;SDS011;5281;48.878;9.394;2023-12-04T05:37:24;6.23;;;4.27;;
10467;SDS011;5281;48.878;9.394;2023-12-04T05:39:50;6.60;;;4.97;;
10467;SDS011;5281;48.878;9.394;2023-12-04T05:42:17;5.83;;;4.60;;
10467;SDS011;5281;48.878;9.394;2023-12-04T05:44:43;5.50;;;4.13;;
10467;SDS011;5281;48.878;9.394;2023-12-04T05:47:10;6.57;;;4.67;;
10467;SDS011;5281;48.878;9.394;2023-12-04T05:49:37;5.50;;;4.23;;
10467;SDS011;5281;48.878;9.394;2023-12-04T05:52:05;5.70;;;4.23;;
10467;SDS011;5281;48.878;9.394;2023-12-04T05:54:32;4.97;;;4.00;;
10467;SDS011;5281;48.878;9.394;2023-12-04T05:56:58;6.07;;;4.40;;
10467;SDS011;5281;48.878;9.394;2023-12-04T05:59:25;5.70;;;4.60;;
10467;SDS011;5281;48.878;9.394;2023-12-04T06:01:52;7.27;;;4.40;;
10467;SDS011;5281;48.878;9.394;2023-12-04T06:04:18;6.67;;;4.53;;
10467;SDS011;5281;48.878;9.394;2023-12-04T06:06:45;7.27;;;4.90;;
10467;SDS011;5281;48.878;9.394;2023-12-04T06:09:13;6.37;;;4.10;;
10467;SDS011;5281;48.878;9.394;2023-12-04T06:11:41;5.77;;;4.40;;
10467;SDS011;5281;48.878;9.394;2023-12-04T06:14:08;6.43;;;5.00;;
10467;SDS011;5281;48.878;9.394;2023-12-04T06:16:35;8.60;;;5.27;;
10467;SDS011;5281;48.878;9.394;2023-12-04T06:19:02;8.60;;;5.73;;
10467;SDS011;5281;48.878;9.394;2023-12-04T06:21:29;8.73;;;5.80;;
10467;SDS011;5281;48.878;9.394;2023-12-04T06:23:56;7.17;;;5.17;;
10467;SDS011;5281;48.878;9.394;2023-12-04T06:26:25;5.90;;;4.37;;
10467;SDS011;5281;48.878;9.394;2023-12-04T06:28:52;6.90;;;4.87;;
10467;SDS011;5281;48.878;9.394;2023-12-04T06:31:20;7.43;;;5.10;;
10467;SDS011;5281;48.878;9.394;2023-12-04T06:33:47;6.97;;;5.27;;
10467;SDS011;5281;48.878;9.394;2023-12-04T06:36:14;8.27;;;4.80;;
10467;SDS011;5281;48.878;9.394;2023-12-04T06:38:43;6.90;;;5.13;;
10467;SDS011;5281;48.878;9.394;2023-12-04T06:41:16;7.63;;;5.60;;
10467;SDS011;5281;48.878;9.394;2023-12-04T06:43:45;6.93;;;4.80;;
10467;SDS011;5281;48.878;9.394;2023-12-04T06:46:13;7.67;;;5.47;;
10467;SDS011;5281;48.878;9.394;2023-12-04T06:48:41;7.13;;;5.30;;
10467;SDS011;5281;48.878;9.394;2023-12-04T06:51:09;7.77;;;5.13;;
10467;SDS011;5281;48.878;9.394;2023-12-04T06:53:36;9.07;;;5.67;;
10467;SDS011;5281;48.878;9.394;2023-12-04T06:56:03;9.27;;;5.63;;
10467;SDS011;5281;48.878;9.394;2023-12-04T06:58:30;7.43;;;5.10;;
10467;SDS011;5281;48.878;9.394;2023-12-04T07:00:58;7.73;;;6.00;;
10467;SDS011;5281;48.878;9.394;2023-12-04T07:03:26;7.30;;;5.60;;
10467;SDS011;5281;48.878;9.394;2023-12-04T07:05:52;7.63;;;5.33;;
10467;SDS011;5281;48.878;9.394;2023-12-04T07:08:19;8.67;;;5.70;;
10467;SDS011;5281;48.878;9.394;2023-12-04T07:10:46;8.30;;;5.83;;
10467;SDS011;5281;48.878;9.394;2023-12-04T07:13:12;7.33;;;5.47;;
10467;SDS011;5281;48.878;9.394;2023-12-04T07:15:39;7.63;;;5.37;;
10467;SDS011;5281;48.878;9.394;2023-12-04T07:18:07;7.67;;;5.63;;
10467;SDS011;5281;48.878;9.394;2023-12-04T07:20:34;8.70;;;5.87;;
10467;SDS011;5281;48.878;9.394;2023-12-04T07:23:01;8.47;;;5.30;;
10467;SDS011;5281;48.878;9.394;2023-12-04T07:25:28;7.70;;;5.47;;
10467;SDS011;5281;48.878;9.394;2023-12-04T07:27:55;8.40;;;5.80;;
10467;SDS011;5281;48.878;9.394;2023-12-04T07:30:22;7.17;;;5.20;;
10467;SDS011;5281;48.878;9.394;2023-12-04T07:32:49;7.30;;;5.13;;
10467;SDS011;5281;48.878;9.394;2023-12-04T07:35:17;7.47;;;5.23;;
10467;SDS011;5281;48.878;9.394;2023-12-04T07:37:44;5.83;;;4.57;;
10467;SDS011;5281;48.878;9.394;2023-12-04T07:40:11;8.20;;;5.73;;
10467;SDS011;5281;48.878;9.394;2023-12-04T07:42:38;8.73;;;6.17;;
10467;SDS011;5281;48.878;9.394;2023-12-04T07:45:06;6.83;;;5.23;;
10467;SDS011;5281;48.878;9.394;2023-12-04T07:47:35;8.03;;;5.30;;
10467;SDS011;5281;48.878;9.394;2023-12-04T07:50:02;8.93;;;5.73;;
10467;SDS011;5281;48.878;9.394;2023-12-04T07:52:30;7.07;;;4.97;;
10467;SDS011;5281;48.878;9.394;2023-12-04T07:54:57;7.53;;;5.83;;
10467;SDS011;5281;48.878;9.394;2023-12-04T07:57:23;7.20;;;5.60;;
10467;SDS011;5281;48.878;9.394;2023-12-04T07:59:50;8.07;;;5.43;;
10467;SDS011;5281;48.878;9.394;2023-12-04T08:02:18;8.03;;;5.03;;
10467;SDS011;5281;48.878;9.394;2023-12-04T08:04:44;7.40;;;5.33;;
10467;SDS011;5281;48.878;9.394;2023-12-04T08:07:12;7.33;;;5.40;;
10467;SDS011;5281;48.878;9.394;2023-12-04T08:09:40;8.33;;;5.67;;
10467;SDS011;5281;48.878;9.394;2023-12-04T08:12:07;6.77;;;4.90;;
10467;SDS011;5281;48.878;9.394;2023-12-04T08:14:34;7.50;;;5.50;;
10467;SDS011;5281;48.878;9.394;2023-12-04T08:17:01;8.27;;;5.43;;
10467;SDS011;5281;48.878;9.394;2023-12-04T08:19:27;7.43;;;5.17;;
10467;SDS011;5281;48.878;9.394;2023-12-04T08:21:54;7.25;;;5.47;;
10467;SDS011;5281;48.878;9.394;2023-12-04T08:24:21;6.67;;;5.40;;
10467;SDS011;5281;48.878;9.394;2023-12-04T08:26:49;6.50;;;5.10;;
10467;SDS011;5281;48.878;9.394;2023-12-04T08:29:16;7.97;;;5.00;;
10467;SDS011;5281;48.878;9.394;2023-12-04T08:31:43;6.47;;;4.67;;
10467;SDS011;5281;48.878;9.394;2023-12-04T08:34:09;6.07;;;5.13;;
10467;SDS011;5281;48.878;9.394;2023-12-04T08:36:36;6.87;;;4.50;;
10467;SDS011;5281;48.878;9.394;2023-12-04T08:39:03;5.93;;;4.67;;
10467;SDS011;5281;48.878;9.394;2023-12-04T08:41:30;7.00;;;5.07;;
10467;SDS011;5281;48.878;9.394;2023-12-04T08:43:58;6.93;;;4.83;;
10467;SDS011;5281;48.878;9.394;2023-12-04T08:46:25;6.90;;;4.43;;
10467;SDS011;5281;48.878;9.394;2023-12-04T08:48:52;8.60;;;4.70;;
10467;SDS011;5281;48.878;9.394;2023-12-04T08:51:19;8.43;;;5.10;;
10467;SDS011;5281;48.878;9.394;2023-12-04T08:53:45;7.10;;;5.00;;
10467;SDS011;5281;48.878;9.394;2023-12-04T08:56:12;7.07;;;5.40;;
10467;SDS011;5281;48.878;9.394;2023-12-04T08:58:39;6.97;;;4.93;;
10467;SDS011;5281;48.878;9.394;2023-12-04T09:01:07;7.07;;;4.90;;
10467;SDS011;5281;48.878;9.394;2023-12-04T09:03:34;7.03;;;5.23;;
10467;SDS011;5281;48.878;9.394;2023-12-04T09:06:00;8.10;;;5.13;;
10467;SDS011;5281;48.878;9.394;2023-12-04T09:08:27;7.77;;;5.20;;
10467;SDS011;5281;48.878;9.394;2023-12-04T09:10:57;8.37;;;5.67;;
10467;SDS011;5281;48.878;9.394;2023-12-04T09:13:24;7.57;;;5.83;;
10467;SDS011;5281;48.878;9.394;2023-12-04T09:15:51;8.87;;;5.77;;
10467;SDS011;5281;48.878;9.394;2023-12-04T09:18:19;8.20;;;5.73;;
10467;SDS011;5281;48.878;9.394;2023-12-04T09:20:46;7.60;;;5.23;;
10467;SDS011;5281;48.878;9.394;2023-12-04T09:23:12;8.43;;;6.07;;
10467;SDS011;5281;48.878;9.394;2023-12-04T09:25:39;7.90;;;6.10;;
10467;SDS011;5281;48.878;9.394;2023-12-04T09:28:06;6.97;;;5.20;;
10467;SDS011;5281;48.878;9.394;2023-12-04T09:30:35;7.23;;;5.67;;
10467;SDS011;5281;48.878;9.394;2023-12-04T09:33:03;8.10;;;5.67;;
10467;SDS011;5281;48.878;9.394;2023-12-04T09:35:32;7.83;;;5.40;;
10467;SDS011;5281;48.878;9.394;2023-12-04T09:37:59;7.97;;;4.83;;
10467;SDS011;5281;48.878;9.394;2023-12-04T09:40:26;8.73;;;5.90;;
10467;SDS011;5281;48.878;9.394;2023-12-04T09:42:52;9.53;;;5.70;;
10467;SDS011;5281;48.878;9.394;2023-12-04T09:45:19;9.30;;;5.83;;
10467;SDS011;5281;48.878;9.394;2023-12-04T09:47:47;7.87;;;6.23;;
10467;SDS011;5281;48.878;9.394;2023-12-04T09:50:14;8.30;;;5.77;;
10467;SDS011;5281;48.878;9.394;2023-12-04T09:52:47;7.27;;;5.83;;
10467;SDS011;5281;48.878;9.394;2023-12-04T09:55:14;7.57;;;5.50;;
10467;SDS011;5281;48.878;9.394;2023-12-04T09:57:41;10.47;;;5.90;;
10467;SDS011;5281;48.878;9.394;2023-12-04T10:00:10;8.17;;;5.83;;
10467;SDS011;5281;48.878;9.394;2023-12-04T10:02:39;10.27;;;6.13;;
10467;SDS011;5281;48.878;9.394;2023-12-04T10:05:07;10.37;;;6.13;;
10467;SDS011;5281;48.878;9.394;2023-12-04T10:07:34;8.10;;;5.87;;
10467;SDS011;5281;48.878;9.394;2023-12-04T10:10:02;7.93;;;6.03;;
10467;SDS011;5281;48.878;9.394;2023-12-04T10:12:30;8.53;;;5.73;;
10467;SDS011;5281;48.878;9.394;2023-12-04T10:15:05;9.47;;;6.27;;
10467;SDS011;5281;48.878;9.394;2023-12-04T10:17:33;9.20;;;6.10;;
10467;SDS011;5281;48.878;9.394;2023-12-04T10:20:05;10.67;;;6.77;;
10467;SDS011;5281;48.878;9.394;2023-12-04T10:22:51;7.90;;;5.73;;
10467;SDS011;5281;48.878;9.394;2023-12-04T10:25:21;10.10;;;6.07;;
10467;SDS011;5281;48.878;9.394;2023-12-04T10:27:49;10.17;;;6.07;;
10467;SDS011;5281;48.878;9.394;2023-12-04T10:30:23;10.33;;;6.47;;
10467;SDS011;5281;48.878;9.394;2023-12-04T10:32:54;9.93;;;6.43;;
10467;SDS011;5281;48.878;9.394;2023-12-04T10:35:25;14.13;;;6.53;;
10467;SDS011;5281;48.878;9.394;2023-12-04T10:37:53;10.83;;;6.13;;
10467;SDS011;5281;48.878;9.394;2023-12-04T10:40:25;9.27;;;6.37;;
10467;SDS011;5281;48.878;9.394;2023-12-04T10:42:57;13.40;;;6.97;;
10467;SDS011;5281;48.878;9.394;2023-12-04T10:45:41;9.33;;;6.90;;
10467;SDS011;5281;48.878;9.394;2023-12-04T10:48:09;8.60;;;6.27;;
10467;SDS011;5281;48.878;9.394;2023-12-04T10:50:36;9.93;;;6.70;;
10467;SDS011;5281;48.878;9.394;2023-12-04T10:53:04;10.27;;;7.30;;
10467;SDS011;5281;48.878;9.394;2023-12-04T10:55:32;7.97;;;6.13;;
10467;SDS011;5281;48.878;9.394;2023-12-04T10:58:00;12.07;;;6.60;;
10467;SDS011;5281;48.878;9.394;2023-12-04T11:00:31;19.80;;;10.50;;
10467;SDS011;5281;48.878;9.394;2023-12-04T11:03:03;14.10;;;7.80;;
10467;SDS011;5281;48.878;9.394;2023-12-04T11:05:33;9.00;;;6.27;;
10467;SDS011;5281;48.878;9.394;2023-12-04T11:08:03;10.83;;;7.60;;
10467;SDS011;5281;48.878;9.394;2023-12-04T11:10:33;9.03;;;6.40;;
10467;SDS011;5281;48.878;9.394;2023-12-04T11:13:06;9.33;;;6.10;;
10467;SDS011;5281;48.878;9.394;2023-12-04T11:15:39;11.90;;;6.40;;
10467;SDS011;5281;48.878;9.394;2023-12-04T11:18:07;9.30;;;6.90;;
10467;SDS011;5281;48.878;9.394;2023-12-04T11:20:39;9.10;;;6.40;;
10467;SDS011;5281;48.878;9.394;2023-12-04T11:23:10;8.90;;;6.63;;
10467;SDS011;5281;48.878;9.394;2023-12-04T11:25:40;9.40;;;6.80;;
10467;SDS011;5281;48.878;9.394;2023-12-04T11:28:07;12.13;;;6.93;;
10467;SDS011;5281;48.878;9.394;2023-12-04T11:30:35;7.63;;;6.27;;
10467;SDS011;5281;48.878;9.394;2023-12-04T11:33:04;8.50;;;6.53;;
10467;SDS011;5281;48.878;9.394;2023-12-04T11:35:31;8.17;;;6.33;;
10467;SDS011;5281;48.878;9.394;2023-12-04T11:37:59;7.90;;;5.90;;
10467;SDS011;5281;48.878;9.394;2023-12-04T11:40:26;9.93;;;7.00;;
10467;SDS011;5281;48.878;9.394;2023-12-04T11:42:55;8.97;;;6.70;;
10467;SDS011;5281;48.878;9.394;2023-12-04T11:45:22;10.33;;;7.03;;
10467;SDS011;5281;48.878;9.394;2023-12-04T11:47:49;10.43;;;6.97;;
10467;SDS011;5281;48.878;9.394;2023-12-04T11:50:18;11.27;;;6.90;;
10467;SDS011;5281;48.878;9.394;2023-12-04T11:52:45;10.23;;;7.70;;
10467;SDS011;5281;48.878;9.394;2023-12-04T11:55:13;11.67;;;7.33;;
10467;SDS011;5281;48.878;9.394;2023-12-04T11:57:42;10.97;;;7.20;;
10467;SDS011;5281;48.878;9.394;2023-12-04T12:00:13;9.97;;;7.53;;
10467;SDS011;5281;48.878;9.394;2023-12-04T12:02:47;12.57;;;7.13;;
10467;SDS011;5281;48.878;9.394;2023-12-04T12:05:27;11.00;;;7.70;;
10467;SDS011;5281;48.878;9.394;2023-12-04T12:07:53;10.43;;;7.53;;
10467;SDS011;5281;48.878;9.394;2023-12-04T12:10:20;10.57;;;7.70;;
10467;SDS011;5281;48.878;9.394;2023-12-04T12:12:47;9.67;;;6.90;;
10467;SDS011;5281;48.878;9.394;2023-12-04T12:15:16;9.70;;;6.77;;
10467;SDS011;5281;48.878;9.394;2023-12-04T12:17:43;7.83;;;6.40;;
10467;SDS011;5281;48.878;9.394;2023-12-04T12:20:10;10.03;;;7.60;;
10467;SDS011;5281;48.878;9.394;2023-12-04T12:22:38;13.13;;;7.60;;
10467;SDS011;5281;48.878;9.394;2023-12-04T12:25:07;10.30;;;7.87;;
10467;SDS011;5281;48.878;9.394;2023-12-04T12:27:34;12.00;;;7.77;;
10467;SDS011;5281;48.878;9.394;2023-12-04T12:30:01;10.13;;;7.60;;
10467;SDS011;5281;48.878;9.394;2023-12-04T12:32:31;10.47;;;7.80;;
10467;SDS011;5281;48.878;9.394;2023-12-04T12:34:58;12.87;;;8.63;;
10467;SDS011;5281;48.878;9.394;2023-12-04T12:37:25;13.10;;;7.73;;
10467;SDS011;5281;48.878;9.394;2023-12-04T12:39:52;13.47;;;8.23;;
10467;SDS011;5281;48.878;9.394;2023-12-04T12:42:21;13.20;;;8.73;;
10467;SDS011;5281;48.878;9.394;2023-12-04T12:44:51;12.00;;;8.13;;
10467;SDS011;5281;48.878;9.394;2023-12-04T12:47:18;12.03;;;8.47;;
10467;SDS011;5281;48.878;9.394;2023-12-04T12:49:47;11.97;;;8.30;;
10467;SDS011;5281;48.878;9.394;2023-12-04T12:52:13;13.00;;;9.07;;
10467;SDS011;5281;48.878;9.394;2023-12-04T12:54:41;14.70;;;9.13;;
10467;SDS011;5281;48.878;9.394;2023-12-04T12:57:09;13.90;;;8.93;;
10467;SDS011;5281;48.878;9.394;2023-12-04T12:59:37;13.73;;;9.13;;
10467;SDS011;5281;48.878;9.394;2023-12-04T13:02:04;12.17;;;8.60;;
10467;SDS011;5281;48.878;9.394;2023-12-04T13:04:35;14.30;;;9.53;;
10467;SDS011;5281;48.878;9.394;2023-12-04T13:07:03;12.57;;;9.10;;
10467;SDS011;5281;48.878;9.394;2023-12-04T13:09:31;14.27;;;8.93;;
10467;SDS011;5281;48.878;9.394;2023-12-04T13:11:58;13.47;;;8.77;;
10467;SDS011;5281;48.878;9.394;2023-12-04T13:14:25;13.10;;;9.40;;
10467;SDS011;5281;48.878;9.394;2023-12-04T13:16:52;13.03;;;8.17;;
10467;SDS011;5281;48.878;9.394;2023-12-04T13:19:21;14.20;;;9.23;;
10467;SDS011;5281;48.878;9.394;2023-12-04T13:21:47;17.77;;;9.00;;
10467;SDS011;5281;48.878;9.394;2023-12-04T13:24:15;15.50;;;9.70;;
10467;SDS011;5281;48.878;9.394;2023-12-04T13:26:42;12.93;;;8.43;;
10467;SDS011;5281;48.878;9.394;2023-12-04T13:29:09;12.17;;;8.83;;
10467;SDS011;5281;48.878;9.394;2023-12-04T13:31:36;12.43;;;8.33;;
10467;SDS011;5281;48.878;9.394;2023-12-04T13:34:03;13.13;;;9.10;;
10467;SDS011;5281;48.878;9.394;2023-12-04T13:36:31;13.03;;;8.60;;
10467;SDS011;5281;48.878;9.394;2023-12-04T13:38:58;10.80;;;8.07;;
10467;SDS011;5281;48.878;9.394;2023-12-04T13:41:26;11.90;;;8.40;;
10467;SDS011;5281;48.878;9.394;2023-12-04T13:44:10;12.73;;;8.87;;
10467;SDS011;5281;48.878;9.394;2023-12-04T13:46:40;12.43;;;8.67;;
10467;SDS011;5281;48.878;9.394;2023-12-04T13:49:06;12.03;;;8.33;;
10467;SDS011;5281;48.878;9.394;2023-12-04T13:51:33;12.07;;;8.30;;
10467;SDS011;5281;48.878;9.394;2023-12-04T13:54:05;12.23;;;8.07;;
10467;SDS011;5281;48.878;9.394;2023-12-04T13:56:46;11.00;;;7.50;;
10467;SDS011;5281;48.878;9.394;2023-12-04T13:59:18;11.73;;;8.73;;
10467;SDS011;5281;48.878;9.394;2023-12-04T14:01:46;13.40;;;8.53;;
10467;SDS011;5281;48.878;9.394;2023-12-04T14:04:14;11.83;;;8.33;;
10467;SDS011;5281;48.878;9.394;2023-12-04T14:06:41;12.83;;;7.63;;
10467;SDS011;5281;48.878;9.394;2023-12-04T14:09:08;11.97;;;8.87;;
10467;SDS011;5281;48.878;9.394;2023-12-04T14:11:39;14.63;;;8.33;;
10467;SDS011;5281;48.878;9.394;2023-12-04T14:14:07;12.27;;;8.63;;
10467;SDS011;5281;48.878;9.394;2023-12-04T14:16:34;13.60;;;8.93;;
10467;SDS011;5281;48.878;9.394;2023-12-04T14:19:01;12.13;;;8.70;;
10467;SDS011;5281;48.878;9.394;2023-12-04T14:21:27;9.90;;;7.73;;
10467;SDS011;5281;48.878;9.394;2023-12-04T14:23:54;11.53;;;8.73;;
10467;SDS011;5281;48.878;9.394;2023-12-04T14:26:21;11.80;;;9.03;;
10467;SDS011;5281;48.878;9.394;2023-12-04T14:28:47;12.30;;;8.67;;
10467;SDS011;5281;48.878;9.394;2023-12-04T14:31:15;13.10;;;8.97;;
10467;SDS011;5281;48.878;9.394;2023-12-04T14:33:43;12.00;;;8.53;;
10467;SDS011;5281;48.878;9.394;2023-12-04T14:36:10;9.73;;;7.90;;
10467;SDS011;5281;48.878;9.394;2023-12-04T14:38:38;14.60;;;8.60;;
10467;SDS011;5281;48.878;9.394;2023-12-04T14:41:05;11.83;;;8.23;;
10467;SDS011;5281;48.878;9.394;2023-12-04T14:43:34;11.13;;;7.83;;
10467;SDS011;5281;48.878;9.394;2023-12-04T14:46:01;12.90;;;8.57;;
10467;SDS011;5281;48.878;9.394;2023-12-04T14:48:30;12.63;;;8.80;;
10467;SDS011;5281;48.878;9.394;2023-12-04T14:50:56;12.97;;;9.07;;
10467;SDS011;5281;48.878;9.394;2023-12-04T14:53:23;11.07;;;8.30;;
10467;SDS011;5281;48.878;9.394;2023-12-04T14:55:55;11.13;;;7.77;;
10467;SDS011;5281;48.878;9.394;2023-12-04T14:58:54;11.50;;;8.53;;